Terminal Aerodrome Forecast
Issued by NWS Topeka, KS

Home | Current Version | Previous Version | Text Only | Print | Product List | Glossary On
Versions: 1 2 3 4 5 6 7 8 9 10 11 12 13 14
657
FTUS43 KTOP 232326
TAFTOP
TAF
KTOP 232326Z 2400/2424 04010KT P6SM SCT250
     FM240400 36011KT P6SM SCT025
     FM240600 33015G24KT P6SM SCT015
     FM241000 30014G23KT P6SM FEW008 BKN015
     FM241800 30017G25KT P6SM BKN025=

USA.gov is the U.S. government's official web portal to all federal, state and local government web resources and services.